sensor_id;sensor_type;location;lat;lon;timestamp;temperature;humidity
52107;DHT22;38105;52.968;5.974;2023-10-08T00:01:34;14.70;99.90
52107;DHT22;38105;52.968;5.974;2023-10-08T00:04:00;14.70;99.90
52107;DHT22;38105;52.968;5.974;2023-10-08T00:06:29;14.60;99.90
52107;DHT22;38105;52.968;5.974;2023-10-08T00:08:55;14.50;99.90
52107;DHT22;38105;52.968;5.974;2023-10-08T00:11:26;14.50;99.90
52107;DHT22;38105;52.968;5.974;2023-10-08T00:13:51;14.50;99.90
52107;DHT22;38105;52.968;5.974;2023-10-08T00:16:21;14.50;99.90
52107;DHT22;38105;52.968;5.974;2023-10-08T00:18:47;14.50;99.90
52107;DHT22;38105;52.968;5.974;2023-10-08T00:21:16;14.30;99.90
52107;DHT22;38105;52.968;5.974;2023-10-08T00:23:45;14.40;99.90
52107;DHT22;38105;52.968;5.974;2023-10-08T00:26:20;14.30;99.90
52107;DHT22;38105;52.968;5.974;2023-10-08T00:29:02;14.40;99.90
52107;DHT22;38105;52.968;5.974;2023-10-08T00:31:32;14.30;99.90
52107;DHT22;38105;52.968;5.974;2023-10-08T00:34:03;14.30;99.90
52107;DHT22;38105;52.968;5.974;2023-10-08T00:36:31;14.20;99.90
52107;DHT22;38105;52.968;5.974;2023-10-08T00:38:56;14.20;99.90
52107;DHT22;38105;52.968;5.974;2023-10-08T00:41:26;14.00;99.90
52107;DHT22;38105;52.968;5.974;2023-10-08T00:43:56;14.00;99.90
52107;DHT22;38105;52.968;5.974;2023-10-08T00:46:22;14.00;99.90
52107;DHT22;38105;52.968;5.974;2023-10-08T00:48:50;13.90;99.90
52107;DHT22;38105;52.968;5.974;2023-10-08T00:51:18;13.90;99.90
52107;DHT22;38105;52.968;5.974;2023-10-08T00:53:52;13.80;99.90
52107;DHT22;38105;52.968;5.974;2023-10-08T00:56:18;13.90;99.90
52107;DHT22;38105;52.968;5.974;2023-10-08T00:58:44;14.00;99.90
52107;DHT22;38105;52.968;5.974;2023-10-08T01:01:18;14.00;99.90
52107;DHT22;38105;52.968;5.974;2023-10-08T01:03:45;14.10;99.90
52107;DHT22;38105;52.968;5.974;2023-10-08T01:06:15;14.10;99.90
52107;DHT22;38105;52.968;5.974;2023-10-08T01:08:44;14.10;99.90
52107;DHT22;38105;52.968;5.974;2023-10-08T01:11:18;14.00;99.90
52107;DHT22;38105;52.968;5.974;2023-10-08T01:13:45;14.00;99.90
52107;DHT22;38105;52.968;5.974;2023-10-08T01:16:12;13.80;99.90
52107;DHT22;38105;52.968;5.974;2023-10-08T01:18:38;13.70;99.90
52107;DHT22;38105;52.968;5.974;2023-10-08T01:21:08;13.90;99.90
52107;DHT22;38105;52.968;5.974;2023-10-08T01:23:44;13.80;99.90
52107;DHT22;38105;52.968;5.974;2023-10-08T01:26:11;13.60;99.90
52107;DHT22;38105;52.968;5.974;2023-10-08T01:28:38;13.70;99.90
52107;DHT22;38105;52.968;5.974;2023-10-08T01:31:04;13.80;99.90
52107;DHT22;38105;52.968;5.974;2023-10-08T01:33:30;13.70;99.90
52107;DHT22;38105;52.968;5.974;2023-10-08T01:35:57;13.60;99.90
52107;DHT22;38105;52.968;5.974;2023-10-08T01:38:29;13.60;99.90
52107;DHT22;38105;52.968;5.974;2023-10-08T01:40:56;13.60;99.90
52107;DHT22;38105;52.968;5.974;2023-10-08T01:43:22;13.80;99.90
52107;DHT22;38105;52.968;5.974;2023-10-08T01:45:47;13.70;99.90
52107;DHT22;38105;52.968;5.974;2023-10-08T01:48:17;13.60;99.90
52107;DHT22;38105;52.968;5.974;2023-10-08T01:50:46;13.70;99.90
52107;DHT22;38105;52.968;5.974;2023-10-08T01:53:13;13.70;99.90
52107;DHT22;38105;52.968;5.974;2023-10-08T01:55:40;13.80;99.90
52107;DHT22;38105;52.968;5.974;2023-10-08T01:58:17;13.70;99.90
52107;DHT22;38105;52.968;5.974;2023-10-08T02:00:46;13.60;99.90
52107;DHT22;38105;52.968;5.974;2023-10-08T02:03:15;13.80;99.90
52107;DHT22;38105;52.968;5.974;2023-10-08T02:05:42;13.70;99.90
52107;DHT22;38105;52.968;5.974;2023-10-08T02:08:08;13.80;99.90
52107;DHT22;38105;52.968;5.974;2023-10-08T02:10:34;13.80;99.90
52107;DHT22;38105;52.968;5.974;2023-10-08T02:13:01;13.80;99.90
52107;DHT22;38105;52.968;5.974;2023-10-08T02:15:27;13.90;99.90
52107;DHT22;38105;52.968;5.974;2023-10-08T02:17:52;13.80;99.90
52107;DHT22;38105;52.968;5.974;2023-10-08T02:20:20;13.80;99.90
52107;DHT22;38105;52.968;5.974;2023-10-08T02:22:47;14.00;99.90
52107;DHT22;38105;52.968;5.974;2023-10-08T02:25:14;14.00;99.90
52107;DHT22;38105;52.968;5.974;2023-10-08T02:27:40;13.90;99.90
52107;DHT22;38105;52.968;5.974;2023-10-08T02:30:07;13.90;99.90
52107;DHT22;38105;52.968;5.974;2023-10-08T02:32:34;13.90;99.90
52107;DHT22;38105;52.968;5.974;2023-10-08T02:35:02;14.00;99.90
52107;DHT22;38105;52.968;5.974;2023-10-08T02:37:27;13.90;99.90
52107;DHT22;38105;52.968;5.974;2023-10-08T02:39:53;14.00;99.90
52107;DHT22;38105;52.968;5.974;2023-10-08T02:42:20;13.80;99.90
52107;DHT22;38105;52.968;5.974;2023-10-08T02:44:47;14.00;99.90
52107;DHT22;38105;52.968;5.974;2023-10-08T02:47:12;13.80;99.90
52107;DHT22;38105;52.968;5.974;2023-10-08T02:49:46;13.90;99.90
52107;DHT22;38105;52.968;5.974;2023-10-08T02:52:13;13.90;99.90
52107;DHT22;38105;52.968;5.974;2023-10-08T02:54:41;13.90;99.90
52107;DHT22;38105;52.968;5.974;2023-10-08T02:57:07;13.90;99.90
52107;DHT22;38105;52.968;5.974;2023-10-08T02:59:39;14.00;99.90
52107;DHT22;38105;52.968;5.974;2023-10-08T03:02:10;13.90;99.90
52107;DHT22;38105;52.968;5.974;2023-10-08T03:04:43;13.90;99.90
52107;DHT22;38105;52.968;5.974;2023-10-08T03:07:14;13.80;99.90
52107;DHT22;38105;52.968;5.974;2023-10-08T03:09:58;13.80;99.90
52107;DHT22;38105;52.968;5.974;2023-10-08T03:12:42;13.60;99.90
52107;DHT22;38105;52.968;5.974;2023-10-08T03:15:08;13.60;99.90
52107;DHT22;38105;52.968;5.974;2023-10-08T03:17:53;13.70;99.90
52107;DHT22;38105;52.968;5.974;2023-10-08T03:20:19;13.70;99.90
52107;DHT22;38105;52.968;5.974;2023-10-08T03:23:04;13.70;99.90
52107;DHT22;38105;52.968;5.974;2023-10-08T03:25:37;13.70;99.90
52107;DHT22;38105;52.968;5.974;2023-10-08T03:28:10;13.70;99.90
52107;DHT22;38105;52.968;5.974;2023-10-08T03:30:41;13.70;99.90
52107;DHT22;38105;52.968;5.974;2023-10-08T03:33:16;13.60;99.90
52107;DHT22;38105;52.968;5.974;2023-10-08T03:35:48;13.50;99.90
52107;DHT22;38105;52.968;5.974;2023-10-08T03:38:18;13.70;99.90
52107;DHT22;38105;52.968;5.974;2023-10-08T03:40:55;13.60;99.90
52107;DHT22;38105;52.968;5.974;2023-10-08T03:43:32;13.80;99.90
52107;DHT22;38105;52.968;5.974;2023-10-08T03:46:09;13.80;99.90
52107;DHT22;38105;52.968;5.974;2023-10-08T03:48:41;13.80;99.90
52107;DHT22;38105;52.968;5.974;2023-10-08T03:51:10;13.80;99.90
52107;DHT22;38105;52.968;5.974;2023-10-08T03:53:40;13.80;99.90
52107;DHT22;38105;52.968;5.974;2023-10-08T03:56:24;13.80;99.90
52107;DHT22;38105;52.968;5.974;2023-10-08T03:58:50;13.80;99.90
52107;DHT22;38105;52.968;5.974;2023-10-08T04:01:19;13.70;99.90
52107;DHT22;38105;52.968;5.974;2023-10-08T04:03:46;13.60;99.90
52107;DHT22;38105;52.968;5.974;2023-10-08T04:06:19;13.60;99.90
52107;DHT22;38105;52.968;5.974;2023-10-08T04:08:48;13.70;99.90
52107;DHT22;38105;52.968;5.974;2023-10-08T04:11:32;13.70;99.90
52107;DHT22;38105;52.968;5.974;2023-10-08T04:14:01;13.60;99.90
52107;DHT22;38105;52.968;5.974;2023-10-08T04:16:32;13.60;99.90
52107;DHT22;38105;52.968;5.974;2023-10-08T04:19:02;13.80;99.90
52107;DHT22;38105;52.968;5.974;2023-10-08T04:21:29;13.80;99.90
52107;DHT22;38105;52.968;5.974;2023-10-08T04:23:54;13.80;99.90
52107;DHT22;38105;52.968;5.974;2023-10-08T04:26:23;13.70;99.90
52107;DHT22;38105;52.968;5.974;2023-10-08T04:28:55;13.50;99.90
52107;DHT22;38105;52.968;5.974;2023-10-08T04:31:23;13.70;99.90
52107;DHT22;38105;52.968;5.974;2023-10-08T04:34:02;13.80;99.90
52107;DHT22;38105;52.968;5.974;2023-10-08T04:36:32;13.60;99.90
52107;DHT22;38105;52.968;5.974;2023-10-08T04:38:58;13.70;99.90
52107;DHT22;38105;52.968;5.974;2023-10-08T04:41:29;13.70;99.90
52107;DHT22;38105;52.968;5.974;2023-10-08T04:43:55;13.70;99.90
52107;DHT22;38105;52.968;5.974;2023-10-08T04:46:21;13.60;99.90
52107;DHT22;38105;52.968;5.974;2023-10-08T04:49:05;13.60;99.90
52107;DHT22;38105;52.968;5.974;2023-10-08T04:51:34;13.70;99.90
52107;DHT22;38105;52.968;5.974;2023-10-08T04:54:10;13.70;99.90
52107;DHT22;38105;52.968;5.974;2023-10-08T04:56:36;13.60;99.90
52107;DHT22;38105;52.968;5.974;2023-10-08T04:59:02;13.60;99.90
52107;DHT22;38105;52.968;5.974;2023-10-08T05:01:30;13.50;99.90
52107;DHT22;38105;52.968;5.974;2023-10-08T05:04:22;13.60;99.90
52107;DHT22;38105;52.968;5.974;2023-10-08T05:07:10;13.60;99.90
52107;DHT22;38105;52.968;5.974;2023-10-08T05:09:44;13.40;99.90
52107;DHT22;38105;52.968;5.974;2023-10-08T05:12:28;13.50;99.90
52107;DHT22;38105;52.968;5.974;2023-10-08T05:15:00;13.40;99.90
52107;DHT22;38105;52.968;5.974;2023-10-08T05:17:38;13.50;99.90
52107;DHT22;38105;52.968;5.974;2023-10-08T05:20:16;13.50;99.90
52107;DHT22;38105;52.968;5.974;2023-10-08T05:22:56;13.40;99.90
52107;DHT22;38105;52.968;5.974;2023-10-08T05:25:31;13.50;99.90
52107;DHT22;38105;52.968;5.974;2023-10-08T05:28:19;13.40;99.90
52107;DHT22;38105;52.968;5.974;2023-10-08T05:30:50;13.40;99.90
52107;DHT22;38105;52.968;5.974;2023-10-08T05:33:20;13.60;99.90
52107;DHT22;38105;52.968;5.974;2023-10-08T05:35:50;13.40;99.90
52107;DHT22;38105;52.968;5.974;2023-10-08T05:38:21;13.50;99.90
52107;DHT22;38105;52.968;5.974;2023-10-08T05:40:56;13.60;99.90
52107;DHT22;38105;52.968;5.974;2023-10-08T05:43:26;13.50;99.90
52107;DHT22;38105;52.968;5.974;2023-10-08T05:46:07;13.60;99.90
52107;DHT22;38105;52.968;5.974;2023-10-08T05:48:49;13.40;99.90
52107;DHT22;38105;52.968;5.974;2023-10-08T05:51:42;13.60;99.90
52107;DHT22;38105;52.968;5.974;2023-10-08T05:57:01;13.70;99.90
52107;DHT22;38105;52.968;5.974;2023-10-08T05:59:43;13.70;99.90
52107;DHT22;38105;52.968;5.974;2023-10-08T06:02:24;13.70;99.90
52107;DHT22;38105;52.968;5.974;2023-10-08T06:05:06;13.50;99.90
52107;DHT22;38105;52.968;5.974;2023-10-08T06:07:48;13.50;99.90
52107;DHT22;38105;52.968;5.974;2023-10-08T06:15:50;13.70;99.90
52107;DHT22;38105;52.968;5.974;2023-10-08T06:18:16;13.50;99.90
52107;DHT22;38105;52.968;5.974;2023-10-08T06:20:43;13.50;99.90
52107;DHT22;38105;52.968;5.974;2023-10-08T06:23:09;13.50;99.90
52107;DHT22;38105;52.968;5.974;2023-10-08T06:25:37;13.40;99.90
52107;DHT22;38105;52.968;5.974;2023-10-08T06:28:15;13.50;99.90
52107;DHT22;38105;52.968;5.974;2023-10-08T06:30:47;13.50;99.90
52107;DHT22;38105;52.968;5.974;2023-10-08T06:33:14;13.50;99.90
52107;DHT22;38105;52.968;5.974;2023-10-08T06:35:39;13.60;99.90
52107;DHT22;38105;52.968;5.974;2023-10-08T06:38:10;13.60;99.90
52107;DHT22;38105;52.968;5.974;2023-10-08T06:40:36;13.40;99.90
52107;DHT22;38105;52.968;5.974;2023-10-08T06:43:01;13.60;99.90
52107;DHT22;38105;52.968;5.974;2023-10-08T06:46:03;13.50;99.90
52107;DHT22;38105;52.968;5.974;2023-10-08T06:48:38;13.40;99.90
52107;DHT22;38105;52.968;5.974;2023-10-08T06:51:10;13.40;99.90
52107;DHT22;38105;52.968;5.974;2023-10-08T06:53:41;13.50;99.90
52107;DHT22;38105;52.968;5.974;2023-10-08T06:56:07;13.40;99.90
52107;DHT22;38105;52.968;5.974;2023-10-08T06:58:35;13.40;99.90
52107;DHT22;38105;52.968;5.974;2023-10-08T07:01:01;13.60;99.90
52107;DHT22;38105;52.968;5.974;2023-10-08T07:03:30;13.70;99.90
52107;DHT22;38105;52.968;5.974;2023-10-08T07:05:56;13.80;99.90
52107;DHT22;38105;52.968;5.974;2023-10-08T07:08:31;13.80;99.90
52107;DHT22;38105;52.968;5.974;2023-10-08T07:10:57;13.80;99.90
52107;DHT22;38105;52.968;5.974;2023-10-08T07:13:24;13.80;99.90
52107;DHT22;38105;52.968;5.974;2023-10-08T07:15:51;14.00;99.90
52107;DHT22;38105;52.968;5.974;2023-10-08T07:18:17;13.90;99.90
52107;DHT22;38105;52.968;5.974;2023-10-08T07:20:52;14.00;99.90
52107;DHT22;38105;52.968;5.974;2023-10-08T07:23:20;14.00;99.90
52107;DHT22;38105;52.968;5.974;2023-10-08T07:25:56;14.10;99.90
52107;DHT22;38105;52.968;5.974;2023-10-08T07:28:43;14.00;99.90
52107;DHT22;38105;52.968;5.974;2023-10-08T07:31:13;14.00;99.90
52107;DHT22;38105;52.968;5.974;2023-10-08T07:33:41;14.30;99.90
52107;DHT22;38105;52.968;5.974;2023-10-08T07:36:11;14.40;99.90
52107;DHT22;38105;52.968;5.974;2023-10-08T07:38:43;14.20;99.90
52107;DHT22;38105;52.968;5.974;2023-10-08T07:41:12;14.20;99.90
52107;DHT22;38105;52.968;5.974;2023-10-08T07:43:40;14.30;99.90
52107;DHT22;38105;52.968;5.974;2023-10-08T07:46:05;14.30;99.90
52107;DHT22;38105;52.968;5.974;2023-10-08T07:48:31;14.30;99.90
52107;DHT22;38105;52.968;5.974;2023-10-08T07:50:57;14.30;99.90
52107;DHT22;38105;52.968;5.974;2023-10-08T07:53:23;14.30;99.90
52107;DHT22;38105;52.968;5.974;2023-10-08T07:55:50;14.30;99.90
52107;DHT22;38105;52.968;5.974;2023-10-08T07:58:16;14.60;99.90
52107;DHT22;38105;52.968;5.974;2023-10-08T08:00:42;14.70;99.90
52107;DHT22;38105;52.968;5.974;2023-10-08T08:03:19;14.70;99.90
52107;DHT22;38105;52.968;5.974;2023-10-08T08:05:46;14.80;99.90
52107;DHT22;38105;52.968;5.974;2023-10-08T08:08:12;15.00;99.90
52107;DHT22;38105;52.968;5.974;2023-10-08T08:10:43;15.30;99.90
52107;DHT22;38105;52.968;5.974;2023-10-08T08:13:09;15.50;99.90
52107;DHT22;38105;52.968;5.974;2023-10-08T08:15:34;16.10;99.90
52107;DHT22;38105;52.968;5.974;2023-10-08T08:18:07;16.70;99.90
52107;DHT22;38105;52.968;5.974;2023-10-08T08:20:34;16.90;99.90
52107;DHT22;38105;52.968;5.974;2023-10-08T08:23:04;16.90;99.90
52107;DHT22;38105;52.968;5.974;2023-10-08T08:25:39;16.60;99.90
52107;DHT22;38105;52.968;5.974;2023-10-08T08:28:14;16.50;99.90
52107;DHT22;38105;52.968;5.974;2023-10-08T08:30:43;16.40;99.90
52107;DHT22;38105;52.968;5.974;2023-10-08T08:33:12;16.30;99.90
52107;DHT22;38105;52.968;5.974;2023-10-08T08:35:38;16.10;99.90
52107;DHT22;38105;52.968;5.974;2023-10-08T08:38:04;16.10;99.90
52107;DHT22;38105;52.968;5.974;2023-10-08T08:40:31;16.20;99.90
52107;DHT22;38105;52.968;5.974;2023-10-08T08:42:58;16.20;99.90
52107;DHT22;38105;52.968;5.974;2023-10-08T08:45:27;16.20;99.90
52107;DHT22;38105;52.968;5.974;2023-10-08T08:47:56;16.20;99.90
52107;DHT22;38105;52.968;5.974;2023-10-08T08:50:22;16.10;99.90
52107;DHT22;38105;52.968;5.974;2023-10-08T08:52:48;16.20;99.90
52107;DHT22;38105;52.968;5.974;2023-10-08T08:55:13;16.30;99.90
52107;DHT22;38105;52.968;5.974;2023-10-08T08:57:58;16.60;99.90
52107;DHT22;38105;52.968;5.974;2023-10-08T09:00:24;16.60;99.90
52107;DHT22;38105;52.968;5.974;2023-10-08T09:02:53;16.50;99.90
52107;DHT22;38105;52.968;5.974;2023-10-08T09:05:21;16.50;99.90
52107;DHT22;38105;52.968;5.974;2023-10-08T09:08:01;16.50;99.90
52107;DHT22;38105;52.968;5.974;2023-10-08T09:10:31;16.40;99.90
52107;DHT22;38105;52.968;5.974;2023-10-08T09:13:02;16.40;99.90
52107;DHT22;38105;52.968;5.974;2023-10-08T09:15:29;16.50;99.90
52107;DHT22;38105;52.968;5.974;2023-10-08T09:17:54;16.70;99.90
52107;DHT22;38105;52.968;5.974;2023-10-08T09:20:21;17.00;99.90
52107;DHT22;38105;52.968;5.974;2023-10-08T09:23:04;17.20;99.90
52107;DHT22;38105;52.968;5.974;2023-10-08T09:25:33;17.20;99.90
52107;DHT22;38105;52.968;5.974;2023-10-08T09:27:58;17.10;99.90
52107;DHT22;38105;52.968;5.974;2023-10-08T09:30:24;17.10;99.90
52107;DHT22;38105;52.968;5.974;2023-10-08T09:32:51;17.20;99.90
52107;DHT22;38105;52.968;5.974;2023-10-08T09:35:17;17.40;99.90
52107;DHT22;38105;52.968;5.974;2023-10-08T09:37:43;17.40;99.90
52107;DHT22;38105;52.968;5.974;2023-10-08T09:40:09;17.80;99.90
52107;DHT22;38105;52.968;5.974;2023-10-08T09:42:37;17.90;99.90
52107;DHT22;38105;52.968;5.974;2023-10-08T09:45:03;18.20;99.90
52107;DHT22;38105;52.968;5.974;2023-10-08T09:47:31;18.50;99.90
52107;DHT22;38105;52.968;5.974;2023-10-08T09:50:04;18.50;99.90
52107;DHT22;38105;52.968;5.974;2023-10-08T09:52:42;18.30;99.90
52107;DHT22;38105;52.968;5.974;2023-10-08T09:55:15;18.10;99.90
52107;DHT22;38105;52.968;5.974;2023-10-08T09:57:42;18.00;99.90
52107;DHT22;38105;52.968;5.974;2023-10-08T10:00:08;18.10;99.90
52107;DHT22;38105;52.968;5.974;2023-10-08T10:02:41;18.20;99.90
52107;DHT22;38105;52.968;5.974;2023-10-08T10:05:10;18.20;99.90
52107;DHT22;38105;52.968;5.974;2023-10-08T10:07:37;18.20;99.90
52107;DHT22;38105;52.968;5.974;2023-10-08T10:10:07;18.30;99.90
52107;DHT22;38105;52.968;5.974;2023-10-08T10:12:39;18.50;99.90
52107;DHT22;38105;52.968;5.974;2023-10-08T10:15:05;18.50;99.90
52107;DHT22;38105;52.968;5.974;2023-10-08T10:17:33;18.40;99.90
52107;DHT22;38105;52.968;5.974;2023-10-08T10:20:02;18.20;99.90
52107;DHT22;38105;52.968;5.974;2023-10-08T10:22:32;18.20;99.90
52107;DHT22;38105;52.968;5.974;2023-10-08T10:25:03;18.00;99.90
52107;DHT22;38105;52.968;5.974;2023-10-08T10:28:25;18.00;99.90
52107;DHT22;38105;52.968;5.974;2023-10-08T10:30:25;17.90;99.90
52107;DHT22;38105;52.968;5.974;2023-10-08T10:32:53;17.70;99.90
52107;DHT22;38105;52.968;5.974;2023-10-08T10:35:19;17.50;99.90
52107;DHT22;38105;52.968;5.974;2023-10-08T10:37:45;17.50;99.90
52107;DHT22;38105;52.968;5.974;2023-10-08T10:40:20;17.30;99.90
52107;DHT22;38105;52.968;5.974;2023-10-08T10:42:57;17.20;99.90
52107;DHT22;38105;52.968;5.974;2023-10-08T10:45:23;17.20;99.90
52107;DHT22;38105;52.968;5.974;2023-10-08T10:48:04;17.10;99.90
52107;DHT22;38105;52.968;5.974;2023-10-08T10:50:39;17.20;99.90
52107;DHT22;38105;52.968;5.974;2023-10-08T10:53:24;17.40;99.90
52107;DHT22;38105;52.968;5.974;2023-10-08T10:55:52;17.60;99.90
52107;DHT22;38105;52.968;5.974;2023-10-08T10:58:35;17.70;99.90
52107;DHT22;38105;52.968;5.974;2023-10-08T11:01:05;17.70;99.90
52107;DHT22;38105;52.968;5.974;2023-10-08T11:03:52;18.00;99.90
52107;DHT22;38105;52.968;5.974;2023-10-08T11:06:20;18.30;99.90
52107;DHT22;38105;52.968;5.974;2023-10-08T11:08:49;18.20;99.90
52107;DHT22;38105;52.968;5.974;2023-10-08T11:11:16;18.10;99.90
52107;DHT22;38105;52.968;5.974;2023-10-08T11:13:43;18.10;99.90
52107;DHT22;38105;52.968;5.974;2023-10-08T11:16:12;18.00;99.90
52107;DHT22;38105;52.968;5.974;2023-10-08T11:18:43;17.90;99.90
52107;DHT22;38105;52.968;5.974;2023-10-08T11:21:09;17.80;99.90
52107;DHT22;38105;52.968;5.974;2023-10-08T11:23:42;17.90;99.90
52107;DHT22;38105;52.968;5.974;2023-10-08T11:26:08;17.90;99.90
52107;DHT22;38105;52.968;5.974;2023-10-08T11:28:34;17.80;99.90
52107;DHT22;38105;52.968;5.974;2023-10-08T11:31:02;17.60;99.90
52107;DHT22;38105;52.968;5.974;2023-10-08T11:33:40;17.50;99.90
52107;DHT22;38105;52.968;5.974;2023-10-08T11:36:06;17.50;99.90
52107;DHT22;38105;52.968;5.974;2023-10-08T11:38:38;17.50;99.90
52107;DHT22;38105;52.968;5.974;2023-10-08T11:41:14;17.40;99.90
52107;DHT22;38105;52.968;5.974;2023-10-08T11:43:55;17.50;99.90
52107;DHT22;38105;52.968;5.974;2023-10-08T11:46:28;17.40;99.90
52107;DHT22;38105;52.968;5.974;2023-10-08T11:48:58;17.40;99.90
52107;DHT22;38105;52.968;5.974;2023-10-08T11:51:30;17.30;99.90
52107;DHT22;38105;52.968;5.974;2023-10-08T11:53:55;17.40;99.90
52107;DHT22;38105;52.968;5.974;2023-10-08T11:56:21;17.40;99.90
52107;DHT22;38105;52.968;5.974;2023-10-08T11:58:48;17.30;99.90
52107;DHT22;38105;52.968;5.974;2023-10-08T12:01:14;17.20;99.90
52107;DHT22;38105;52.968;5.974;2023-10-08T12:03:41;17.40;99.90
52107;DHT22;38105;52.968;5.974;2023-10-08T12:06:07;17.40;99.90
52107;DHT22;38105;52.968;5.974;2023-10-08T12:08:33;17.40;99.90
52107;DHT22;38105;52.968;5.974;2023-10-08T12:11:04;17.50;99.90
52107;DHT22;38105;52.968;5.974;2023-10-08T12:13:40;17.50;99.90
52107;DHT22;38105;52.968;5.974;2023-10-08T12:16:15;17.60;99.90
52107;DHT22;38105;52.968;5.974;2023-10-08T12:18:46;17.60;99.90
52107;DHT22;38105;52.968;5.974;2023-10-08T12:21:18;17.40;99.90
52107;DHT22;38105;52.968;5.974;2023-10-08T12:23:44;17.40;99.90
52107;DHT22;38105;52.968;5.974;2023-10-08T12:26:15;17.60;99.90
52107;DHT22;38105;52.968;5.974;2023-10-08T12:28:41;17.70;99.90
52107;DHT22;38105;52.968;5.974;2023-10-08T12:31:09;17.70;99.90
52107;DHT22;38105;52.968;5.974;2023-10-08T12:33:35;17.90;99.90
52107;DHT22;38105;52.968;5.974;2023-10-08T12:36:01;17.90;99.90
52107;DHT22;38105;52.968;5.974;2023-10-08T12:38:39;17.90;99.90
52107;DHT22;38105;52.968;5.974;2023-10-08T12:41:06;17.90;99.90
52107;DHT22;38105;52.968;5.974;2023-10-08T12:43:37;17.70;99.90
52107;DHT22;38105;52.968;5.974;2023-10-08T12:46:04;17.70;99.90
52107;DHT22;38105;52.968;5.974;2023-10-08T12:48:30;17.90;99.90
52107;DHT22;38105;52.968;5.974;2023-10-08T12:50:55;17.90;99.90
52107;DHT22;38105;52.968;5.974;2023-10-08T12:53:25;17.90;99.90
52107;DHT22;38105;52.968;5.974;2023-10-08T12:56:17;17.80;99.90
52107;DHT22;38105;52.968;5.974;2023-10-08T12:58:46;17.60;99.90
52107;DHT22;38105;52.968;5.974;2023-10-08T13:01:19;17.50;99.90
52107;DHT22;38105;52.968;5.974;2023-10-08T13:03:45;17.50;99.90
52107;DHT22;38105;52.968;5.974;2023-10-08T13:06:14;17.40;99.90
52107;DHT22;38105;52.968;5.974;2023-10-08T13:08:49;17.40;99.90
52107;DHT22;38105;52.968;5.974;2023-10-08T13:11:21;17.40;99.90
52107;DHT22;38105;52.968;5.974;2023-10-08T13:13:53;17.40;99.90
52107;DHT22;38105;52.968;5.974;2023-10-08T13:16:22;17.20;99.90
52107;DHT22;38105;52.968;5.974;2023-10-08T13:18:48;17.20;99.90
52107;DHT22;38105;52.968;5.974;2023-10-08T13:21:13;17.10;99.90
52107;DHT22;38105;52.968;5.974;2023-10-08T13:23:39;17.10;99.90
52107;DHT22;38105;52.968;5.974;2023-10-08T13:26:05;17.20;99.90
52107;DHT22;38105;52.968;5.974;2023-10-08T13:28:32;17.30;99.90
52107;DHT22;38105;52.968;5.974;2023-10-08T13:31:02;17.40;99.90
52107;DHT22;38105;52.968;5.974;2023-10-08T13:33:38;17.30;99.90
52107;DHT22;38105;52.968;5.974;2023-10-08T13:36:08;17.40;99.90
52107;DHT22;38105;52.968;5.974;2023-10-08T13:38:34;17.40;99.90
52107;DHT22;38105;52.968;5.974;2023-10-08T13:41:02;17.40;99.90
52107;DHT22;38105;52.968;5.974;2023-10-08T13:43:31;17.30;99.90
52107;DHT22;38105;52.968;5.974;2023-10-08T13:46:00;17.20;99.90
52107;DHT22;38105;52.968;5.974;2023-10-08T13:48:39;17.30;99.90
52107;DHT22;38105;52.968;5.974;2023-10-08T13:51:05;17.20;99.90
52107;DHT22;38105;52.968;5.974;2023-10-08T13:53:34;17.30;99.90
52107;DHT22;38105;52.968;5.974;2023-10-08T13:56:02;17.30;99.90
52107;DHT22;38105;52.968;5.974;2023-10-08T13:58:32;17.30;99.90
52107;DHT22;38105;52.968;5.974;2023-10-08T14:01:00;17.30;99.90
52107;DHT22;38105;52.968;5.974;2023-10-08T14:03:27;17.30;99.90
52107;DHT22;38105;52.968;5.974;2023-10-08T14:05:54;17.20;99.90
52107;DHT22;38105;52.968;5.974;2023-10-08T14:08:19;17.20;99.90
52107;DHT22;38105;52.968;5.974;2023-10-08T14:10:45;17.10;99.90
52107;DHT22;38105;52.968;5.974;2023-10-08T14:13:14;17.00;99.90
52107;DHT22;38105;52.968;5.974;2023-10-08T14:15:40;17.10;99.90
52107;DHT22;38105;52.968;5.974;2023-10-08T14:18:11;17.00;99.90
52107;DHT22;38105;52.968;5.974;2023-10-08T14:20:42;16.90;99.90
52107;DHT22;38105;52.968;5.974;2023-10-08T14:23:08;16.90;99.90
52107;DHT22;38105;52.968;5.974;2023-10-08T14:25:34;16.80;99.90
52107;DHT22;38105;52.968;5.974;2023-10-08T14:28:07;16.70;99.90
52107;DHT22;38105;52.968;5.974;2023-10-08T14:30:33;16.80;99.90
52107;DHT22;38105;52.968;5.974;2023-10-08T14:33:06;16.70;99.90
52107;DHT22;38105;52.968;5.974;2023-10-08T14:35:34;16.70;99.90
52107;DHT22;38105;52.968;5.974;2023-10-08T14:38:18;16.70;99.90
52107;DHT22;38105;52.968;5.974;2023-10-08T14:41:02;16.70;99.90
52107;DHT22;38105;52.968;5.974;2023-10-08T14:43:46;16.70;99.90
52107;DHT22;38105;52.968;5.974;2023-10-08T14:46:13;16.60;99.90
52107;DHT22;38105;52.968;5.974;2023-10-08T14:48:40;16.60;99.90
52107;DHT22;38105;52.968;5.974;2023-10-08T14:51:06;16.60;99.90
52107;DHT22;38105;52.968;5.974;2023-10-08T14:53:32;16.70;99.90
52107;DHT22;38105;52.968;5.974;2023-10-08T14:56:02;16.70;99.90
52107;DHT22;38105;52.968;5.974;2023-10-08T14:58:31;16.70;99.90
52107;DHT22;38105;52.968;5.974;2023-10-08T15:00:57;16.70;99.90
52107;DHT22;38105;52.968;5.974;2023-10-08T15:03:23;16.70;99.90
52107;DHT22;38105;52.968;5.974;2023-10-08T15:05:49;16.60;99.90
52107;DHT22;38105;52.968;5.974;2023-10-08T15:08:15;16.60;99.90
52107;DHT22;38105;52.968;5.974;2023-10-08T15:10:44;16.50;99.90
52107;DHT22;38105;52.968;5.974;2023-10-08T15:13:11;16.50;99.90
52107;DHT22;38105;52.968;5.974;2023-10-08T15:15:36;16.50;99.90
52107;DHT22;38105;52.968;5.974;2023-10-08T15:18:05;16.40;99.90
52107;DHT22;38105;52.968;5.974;2023-10-08T15:20:31;16.40;99.90
52107;DHT22;38105;52.968;5.974;2023-10-08T15:22:59;16.30;99.90
52107;DHT22;38105;52.968;5.974;2023-10-08T15:25:24;16.20;99.90
52107;DHT22;38105;52.968;5.974;2023-10-08T15:27:50;16.30;99.90
52107;DHT22;38105;52.968;5.974;2023-10-08T15:30:17;16.20;99.90
52107;DHT22;38105;52.968;5.974;2023-10-08T15:32:46;16.10;99.90
52107;DHT22;38105;52.968;5.974;2023-10-08T15:35:16;16.10;99.90
52107;DHT22;38105;52.968;5.974;2023-10-08T15:37:45;16.00;99.90
52107;DHT22;38105;52.968;5.974;2023-10-08T15:40:11;16.00;99.90
52107;DHT22;38105;52.968;5.974;2023-10-08T15:42:46;15.90;99.90
52107;DHT22;38105;52.968;5.974;2023-10-08T15:45:12;15.90;99.90
52107;DHT22;38105;52.968;5.974;2023-10-08T15:47:38;15.80;99.90
52107;DHT22;38105;52.968;5.974;2023-10-08T15:50:04;15.80;99.90
52107;DHT22;38105;52.968;5.974;2023-10-08T15:52:30;15.70;99.90
52107;DHT22;38105;52.968;5.974;2023-10-08T15:54:57;15.70;99.90
52107;DHT22;38105;52.968;5.974;2023-10-08T15:57:22;15.70;99.90